Terminal Aerodrome Forecast
Issued by NWS Newport/Morehead City, NC

Home | Current Version | Previous Version | Text Only | Print | Product List | Glossary Off
Versions: 1 2 3 4 5 6 7 8 9 10 11 12 13 14 15 16 17 18 19 20 21 22 23 24 25 26

000
FTUS42 KMHX 192300
TAFEWN
TAF
KEWN 192338Z 2000/2024 VRB04KT P6SM SCT040 BKN150
     FM200800 01003KT 5SM BR SCT007 BKN100
     FM201300 02005KT P6SM SCT040
     FM201900 VRB05KT P6SM VCTS BKN040CB=

USA.gov is the U.S. government's official web portal to all federal, state and local government web resources and services.